Portada
METAR-TAF:

METAR-TAF

Aeroports :

Alderney,

latitud: 49-43N, longitud: 002-12W, altitud: 71 m

Observació

L'informe es va fer fa 12 minuts, a les 09:20 UTC
Vent 6 kt del Oest
Temperatura 17°C
Humitat 82%
Pressió 1027 hPa
Visibilitat 10 km o més
sense núvols per sota de 1500 mi sense presència de cumulonimbus.

METAR: EGJA 220920Z 26006KT CAVOK 17/14 Q1027

Hora: 10:32 (09:32 UTC)

Pronòstic

L'informe es va fer fa 1 hora i 33 minuts, a les 07:59 UTC
Pronòstic vàlid del 22 a les 09 UTC al 22 a les 18 UTC
Vent 4 kt del Oest/Nord-Oest
Visibilitat 10 km o més
sense núvols per sota de 1500 mi sense presència de cumulonimbus.

TAF: EGJA 220759Z 2209/2218 29004KT CAVOK

Observacions i pronòstics meteorològics de més de 4000 aeroports (METAR i TAF).

Les estacions disponibles són els punts grocs i vermells al mapa.

Posi el ratolí al punt desitjat per veure el nom de l'estació.

Feu clic per veure les observacions i els pronòstics meteorològics.

Per canviar el mapa: feu clic els botons verds amb una creu de color negre per apropar; al botó verd amb un guió per allunyar la imatge; o en les fletxes verdes per a mapes adjacents.


METAR-TAF: